sensor_id;sensor_type;location;lat;lon;timestamp;temperature;humidity
64937;SHT30;51452;47.698;19.050;2023-06-10T00:02:15;18.77;79.08
64937;SHT30;51452;47.698;19.050;2023-06-10T00:04:42;18.74;79.08
64937;SHT30;51452;47.698;19.050;2023-06-10T00:07:08;18.77;78.96
64937;SHT30;51452;47.698;19.050;2023-06-10T00:09:34;18.72;78.91
64937;SHT30;51452;47.698;19.050;2023-06-10T00:12:01;18.75;78.88
64937;SHT30;51452;47.698;19.050;2023-06-10T00:14:27;18.69;79.13
64937;SHT30;51452;47.698;19.050;2023-06-10T00:16:52;18.71;79.03
64937;SHT30;51452;47.698;19.050;2023-06-10T00:19:18;18.69;78.90
64937;SHT30;51452;47.698;19.050;2023-06-10T00:21:44;18.69;79.09
64937;SHT30;51452;47.698;19.050;2023-06-10T00:24:10;18.64;79.80
64937;SHT30;51452;47.698;19.050;2023-06-10T00:26:38;18.41;80.96
64937;SHT30;51452;47.698;19.050;2023-06-10T00:29:03;18.48;80.90
64937;SHT30;51452;47.698;19.050;2023-06-10T00:31:29;18.60;80.27
64937;SHT30;51452;47.698;19.050;2023-06-10T00:33:55;18.65;79.68
64937;SHT30;51452;47.698;19.050;2023-06-10T00:36:20;18.68;79.47
64937;SHT30;51452;47.698;19.050;2023-06-10T00:38:46;18.67;79.84
64937;SHT30;51452;47.698;19.050;2023-06-10T00:41:11;18.65;80.03
64937;SHT30;51452;47.698;19.050;2023-06-10T00:43:37;18.63;79.90
64937;SHT30;51452;47.698;19.050;2023-06-10T00:46:02;18.58;80.00
64937;SHT30;51452;47.698;19.050;2023-06-10T00:48:28;18.54;79.93
64937;SHT30;51452;47.698;19.050;2023-06-10T00:50:53;18.53;79.96
64937;SHT30;51452;47.698;19.050;2023-06-10T00:53:19;18.61;79.73
64937;SHT30;51452;47.698;19.050;2023-06-10T00:55:46;18.57;80.26
64937;SHT30;51452;47.698;19.050;2023-06-10T00:58:11;18.60;80.01
64937;SHT30;51452;47.698;19.050;2023-06-10T01:00:37;18.60;80.14
64937;SHT30;51452;47.698;19.050;2023-06-10T01:03:03;18.63;80.39
64937;SHT30;51452;47.698;19.050;2023-06-10T01:05:34;18.60;80.72
64937;SHT30;51452;47.698;19.050;2023-06-10T01:08:06;18.68;80.64
64937;SHT30;51452;47.698;19.050;2023-06-10T01:10:41;18.69;80.48
64937;SHT30;51452;47.698;19.050;2023-06-10T01:13:10;18.67;79.74
64937;SHT30;51452;47.698;19.050;2023-06-10T01:15:37;18.69;79.47
64937;SHT30;51452;47.698;19.050;2023-06-10T01:18:04;18.65;80.11
64937;SHT30;51452;47.698;19.050;2023-06-10T01:20:31;18.65;79.67
64937;SHT30;51452;47.698;19.050;2023-06-10T01:22:58;18.63;79.13
64937;SHT30;51452;47.698;19.050;2023-06-10T01:25:25;18.60;78.84
64937;SHT30;51452;47.698;19.050;2023-06-10T01:28:04;18.44;79.72
64937;SHT30;51452;47.698;19.050;2023-06-10T01:30:36;18.38;79.86
64937;SHT30;51452;47.698;19.050;2023-06-10T01:33:04;18.34;80.06
64937;SHT30;51452;47.698;19.050;2023-06-10T01:35:32;18.38;79.98
64937;SHT30;51452;47.698;19.050;2023-06-10T01:38:00;18.34;80.18
64937;SHT30;51452;47.698;19.050;2023-06-10T01:40:26;18.32;79.81
64937;SHT30;51452;47.698;19.050;2023-06-10T01:42:52;18.37;79.07
64937;SHT30;51452;47.698;19.050;2023-06-10T01:45:17;18.38;78.97
64937;SHT30;51452;47.698;19.050;2023-06-10T01:47:42;18.44;79.55
64937;SHT30;51452;47.698;19.050;2023-06-10T01:50:08;18.41;79.33
64937;SHT30;51452;47.698;19.050;2023-06-10T01:52:34;18.44;79.40
64937;SHT30;51452;47.698;19.050;2023-06-10T01:54:59;18.43;79.55
64937;SHT30;51452;47.698;19.050;2023-06-10T01:57:25;18.46;79.67
64937;SHT30;51452;47.698;19.050;2023-06-10T01:59:50;18.50;79.74
64937;SHT30;51452;47.698;19.050;2023-06-10T02:02:15;18.48;79.74
64937;SHT30;51452;47.698;19.050;2023-06-10T02:04:41;18.53;79.72
64937;SHT30;51452;47.698;19.050;2023-06-10T02:07:06;18.47;79.92
64937;SHT30;51452;47.698;19.050;2023-06-10T02:09:32;18.50;79.81
64937;SHT30;51452;47.698;19.050;2023-06-10T02:12:00;18.46;79.50
64937;SHT30;51452;47.698;19.050;2023-06-10T02:14:25;18.33;79.04
64937;SHT30;51452;47.698;19.050;2023-06-10T02:16:51;18.30;79.19
64937;SHT30;51452;47.698;19.050;2023-06-10T02:19:17;18.23;79.06
64937;SHT30;51452;47.698;19.050;2023-06-10T02:21:46;18.25;79.02
64937;SHT30;51452;47.698;19.050;2023-06-10T02:24:12;18.25;79.52
64937;SHT30;51452;47.698;19.050;2023-06-10T02:26:37;18.25;79.82
64937;SHT30;51452;47.698;19.050;2023-06-10T02:29:02;18.20;80.21
64937;SHT30;51452;47.698;19.050;2023-06-10T02:31:28;18.25;80.45
64937;SHT30;51452;47.698;19.050;2023-06-10T02:33:54;18.20;80.34
64937;SHT30;51452;47.698;19.050;2023-06-10T02:36:19;18.23;80.31
64937;SHT30;51452;47.698;19.050;2023-06-10T02:38:47;18.23;80.40
64937;SHT30;51452;47.698;19.050;2023-06-10T02:41:12;18.25;80.45
64937;SHT30;51452;47.698;19.050;2023-06-10T02:43:37;18.22;80.58
64937;SHT30;51452;47.698;19.050;2023-06-10T02:46:03;18.20;80.34
64937;SHT30;51452;47.698;19.050;2023-06-10T02:48:28;18.25;79.86
64937;SHT30;51452;47.698;19.050;2023-06-10T02:50:53;18.17;80.30
64937;SHT30;51452;47.698;19.050;2023-06-10T02:53:21;18.25;79.99
64937;SHT30;51452;47.698;19.050;2023-06-10T02:55:46;18.20;80.48
64937;SHT30;51452;47.698;19.050;2023-06-10T02:58:11;18.16;80.55
64937;SHT30;51452;47.698;19.050;2023-06-10T03:00:37;18.18;80.20
64937;SHT30;51452;47.698;19.050;2023-06-10T03:03:03;18.17;80.17
64937;SHT30;51452;47.698;19.050;2023-06-10T03:05:30;18.18;80.12
64937;SHT30;51452;47.698;19.050;2023-06-10T03:07:55;18.16;80.07
64937;SHT30;51452;47.698;19.050;2023-06-10T03:10:20;18.13;79.67
64937;SHT30;51452;47.698;19.050;2023-06-10T03:12:46;18.14;79.27
64937;SHT30;51452;47.698;19.050;2023-06-10T03:15:11;18.14;79.51
64937;SHT30;51452;47.698;19.050;2023-06-10T03:17:37;18.07;79.58
64937;SHT30;51452;47.698;19.050;2023-06-10T03:20:03;18.10;79.44
64937;SHT30;51452;47.698;19.050;2023-06-10T03:22:33;18.06;80.14
64937;SHT30;51452;47.698;19.050;2023-06-10T03:24:58;18.09;80.28
64937;SHT30;51452;47.698;19.050;2023-06-10T03:27:24;18.12;80.10
64937;SHT30;51452;47.698;19.050;2023-06-10T03:29:50;18.12;80.29
64937;SHT30;51452;47.698;19.050;2023-06-10T03:32:15;18.13;80.38
64937;SHT30;51452;47.698;19.050;2023-06-10T03:34:41;18.14;80.32
64937;SHT30;51452;47.698;19.050;2023-06-10T03:37:06;18.14;80.22
64937;SHT30;51452;47.698;19.050;2023-06-10T03:39:32;18.18;80.36
64937;SHT30;51452;47.698;19.050;2023-06-10T03:41:57;18.22;80.10
64937;SHT30;51452;47.698;19.050;2023-06-10T03:44:24;18.23;80.05
64937;SHT30;51452;47.698;19.050;2023-06-10T03:46:51;18.14;80.51
64937;SHT30;51452;47.698;19.050;2023-06-10T03:49:17;18.10;80.81
64937;SHT30;51452;47.698;19.050;2023-06-10T03:51:42;18.17;80.74
64937;SHT30;51452;47.698;19.050;2023-06-10T03:54:08;18.16;80.71
64937;SHT30;51452;47.698;19.050;2023-06-10T03:56:33;18.22;80.46
64937;SHT30;51452;47.698;19.050;2023-06-10T03:58:59;18.29;80.21
64937;SHT30;51452;47.698;19.050;2023-06-10T04:01:25;18.29;80.42
64937;SHT30;51452;47.698;19.050;2023-06-10T04:03:50;18.30;80.45
64937;SHT30;51452;47.698;19.050;2023-06-10T04:06:19;18.36;80.38
64937;SHT30;51452;47.698;19.050;2023-06-10T04:08:44;18.29;80.40
64937;SHT30;51452;47.698;19.050;2023-06-10T04:11:10;18.17;80.70
64937;SHT30;51452;47.698;19.050;2023-06-10T04:13:35;18.25;80.70
64937;SHT30;51452;47.698;19.050;2023-06-10T04:16:01;18.25;80.75
64937;SHT30;51452;47.698;19.050;2023-06-10T04:18:27;18.18;81.12
64937;SHT30;51452;47.698;19.050;2023-06-10T04:20:53;18.25;81.12
64937;SHT30;51452;47.698;19.050;2023-06-10T04:23:19;18.23;81.07
64937;SHT30;51452;47.698;19.050;2023-06-10T04:25:44;18.27;80.90
64937;SHT30;51452;47.698;19.050;2023-06-10T04:28:09;18.37;80.70
64937;SHT30;51452;47.698;19.050;2023-06-10T04:30:35;18.41;80.63
64937;SHT30;51452;47.698;19.050;2023-06-10T04:33:00;18.48;80.55
64937;SHT30;51452;47.698;19.050;2023-06-10T04:35:26;18.57;80.41
64937;SHT30;51452;47.698;19.050;2023-06-10T04:37:54;18.47;80.70
64937;SHT30;51452;47.698;19.050;2023-06-10T04:40:19;18.46;80.97
64937;SHT30;51452;47.698;19.050;2023-06-10T04:42:45;18.50;80.97
64937;SHT30;51452;47.698;19.050;2023-06-10T04:45:10;18.54;81.06
64937;SHT30;51452;47.698;19.050;2023-06-10T04:47:36;18.47;81.19
64937;SHT30;51452;47.698;19.050;2023-06-10T04:50:02;18.56;81.05
64937;SHT30;51452;47.698;19.050;2023-06-10T04:52:28;18.58;81.00
64937;SHT30;51452;47.698;19.050;2023-06-10T04:54:54;18.67;80.71
64937;SHT30;51452;47.698;19.050;2023-06-10T04:57:20;18.63;80.79
64937;SHT30;51452;47.698;19.050;2023-06-10T04:59:45;18.64;80.81
64937;SHT30;51452;47.698;19.050;2023-06-10T05:02:11;18.63;80.87
64937;SHT30;51452;47.698;19.050;2023-06-10T05:04:36;18.63;80.69
64937;SHT30;51452;47.698;19.050;2023-06-10T05:07:02;18.67;80.61
64937;SHT30;51452;47.698;19.050;2023-06-10T05:09:27;18.74;80.38
64937;SHT30;51452;47.698;19.050;2023-06-10T05:11:53;18.79;80.59
64937;SHT30;51452;47.698;19.050;2023-06-10T05:14:21;18.89;80.39
64937;SHT30;51452;47.698;19.050;2023-06-10T05:16:47;19.04;80.20
64937;SHT30;51452;47.698;19.050;2023-06-10T05:19:13;19.09;80.12
64937;SHT30;51452;47.698;19.050;2023-06-10T05:21:38;19.14;79.76
64937;SHT30;51452;47.698;19.050;2023-06-10T05:24:04;19.18;79.87
64937;SHT30;51452;47.698;19.050;2023-06-10T05:26:29;19.18;80.04
64937;SHT30;51452;47.698;19.050;2023-06-10T05:28:57;19.19;80.22
64937;SHT30;51452;47.698;19.050;2023-06-10T05:31:22;19.27;80.17
64937;SHT30;51452;47.698;19.050;2023-06-10T05:33:47;19.39;80.12
64937;SHT30;51452;47.698;19.050;2023-06-10T05:36:13;19.45;80.22
64937;SHT30;51452;47.698;19.050;2023-06-10T05:38:38;19.50;80.27
64937;SHT30;51452;47.698;19.050;2023-06-10T05:41:03;19.47;79.60
64937;SHT30;51452;47.698;19.050;2023-06-10T05:43:29;19.47;79.38
64937;SHT30;51452;47.698;19.050;2023-06-10T05:45:54;19.47;79.58
64937;SHT30;51452;47.698;19.050;2023-06-10T05:48:20;19.50;79.87
64937;SHT30;51452;47.698;19.050;2023-06-10T05:50:45;19.46;79.38
64937;SHT30;51452;47.698;19.050;2023-06-10T05:53:14;19.53;78.75
64937;SHT30;51452;47.698;19.050;2023-06-10T05:55:44;19.53;78.02
64937;SHT30;51452;47.698;19.050;2023-06-10T05:58:10;19.65;78.25
64937;SHT30;51452;47.698;19.050;2023-06-10T06:00:38;19.70;78.20
64937;SHT30;51452;47.698;19.050;2023-06-10T06:03:03;19.80;78.08
64937;SHT30;51452;47.698;19.050;2023-06-10T06:05:29;19.81;77.58
64937;SHT30;51452;47.698;19.050;2023-06-10T06:08:01;19.78;77.65
64937;SHT30;51452;47.698;19.050;2023-06-10T06:10:26;19.66;78.44
64937;SHT30;51452;47.698;19.050;2023-06-10T06:12:52;19.80;77.99
64937;SHT30;51452;47.698;19.050;2023-06-10T06:15:17;20.01;78.11
64937;SHT30;51452;47.698;19.050;2023-06-10T06:17:42;20.10;77.39
64937;SHT30;51452;47.698;19.050;2023-06-10T06:20:08;20.22;77.11
64937;SHT30;51452;47.698;19.050;2023-06-10T06:22:33;20.24;77.41
64937;SHT30;51452;47.698;19.050;2023-06-10T06:24:59;20.17;76.79
64937;SHT30;51452;47.698;19.050;2023-06-10T06:27:24;20.24;76.87
64937;SHT30;51452;47.698;19.050;2023-06-10T06:29:49;20.13;76.63
64937;SHT30;51452;47.698;19.050;2023-06-10T06:32:15;20.28;76.54
64937;SHT30;51452;47.698;19.050;2023-06-10T06:34:41;20.44;76.71
64937;SHT30;51452;47.698;19.050;2023-06-10T06:37:06;20.61;76.46
64937;SHT30;51452;47.698;19.050;2023-06-10T06:39:32;20.75;76.11
64937;SHT30;51452;47.698;19.050;2023-06-10T06:41:57;20.86;75.01
64937;SHT30;51452;47.698;19.050;2023-06-10T06:44:22;20.90;74.61
64937;SHT30;51452;47.698;19.050;2023-06-10T06:46:48;20.96;73.53
64937;SHT30;51452;47.698;19.050;2023-06-10T06:49:14;21.02;74.55
64937;SHT30;51452;47.698;19.050;2023-06-10T06:51:39;21.08;74.10
64937;SHT30;51452;47.698;19.050;2023-06-10T06:54:04;20.89;72.31
64937;SHT30;51452;47.698;19.050;2023-06-10T06:56:31;20.89;74.22
64937;SHT30;51452;47.698;19.050;2023-06-10T06:58:56;21.08;73.47
64937;SHT30;51452;47.698;19.050;2023-06-10T07:01:22;21.08;73.34
64937;SHT30;51452;47.698;19.050;2023-06-10T07:03:47;21.17;73.56
64937;SHT30;51452;47.698;19.050;2023-06-10T07:06:12;21.07;74.02
64937;SHT30;51452;47.698;19.050;2023-06-10T07:08:38;20.99;72.88
64937;SHT30;51452;47.698;19.050;2023-06-10T07:11:03;20.76;73.92
64937;SHT30;51452;47.698;19.050;2023-06-10T07:13:29;20.83;73.61
64937;SHT30;51452;47.698;19.050;2023-06-10T07:15:54;20.86;74.18
64937;SHT30;51452;47.698;19.050;2023-06-10T07:18:19;20.86;74.39
64937;SHT30;51452;47.698;19.050;2023-06-10T07:20:45;20.95;74.10
64937;SHT30;51452;47.698;19.050;2023-06-10T07:23:10;21.04;74.44
64937;SHT30;51452;47.698;19.050;2023-06-10T07:25:36;21.02;74.94
64937;SHT30;51452;47.698;19.050;2023-06-10T07:28:01;20.86;74.19
64937;SHT30;51452;47.698;19.050;2023-06-10T07:30:27;20.75;75.05
64937;SHT30;51452;47.698;19.050;2023-06-10T07:32:53;20.89;74.70
64937;SHT30;51452;47.698;19.050;2023-06-10T07:35:19;20.93;75.27
64937;SHT30;51452;47.698;19.050;2023-06-10T07:37:44;21.13;74.67
64937;SHT30;51452;47.698;19.050;2023-06-10T07:40:10;21.24;74.42
64937;SHT30;51452;47.698;19.050;2023-06-10T07:42:36;21.17;72.42
64937;SHT30;51452;47.698;19.050;2023-06-10T07:45:03;21.14;71.22
64937;SHT30;51452;47.698;19.050;2023-06-10T07:47:29;21.36;71.54
64937;SHT30;51452;47.698;19.050;2023-06-10T07:49:55;21.50;71.79
64937;SHT30;51452;47.698;19.050;2023-06-10T07:52:20;21.58;72.69
64937;SHT30;51452;47.698;19.050;2023-06-10T07:54:45;21.58;70.67
64937;SHT30;51452;47.698;19.050;2023-06-10T07:57:11;21.81;72.86
64937;SHT30;51452;47.698;19.050;2023-06-10T07:59:36;21.98;71.80
64937;SHT30;51452;47.698;19.050;2023-06-10T08:02:02;22.05;69.84
64937;SHT30;51452;47.698;19.050;2023-06-10T08:04:27;22.16;69.71
64937;SHT30;51452;47.698;19.050;2023-06-10T08:06:53;22.23;69.39
64937;SHT30;51452;47.698;19.050;2023-06-10T08:09:18;22.22;69.96
64937;SHT30;51452;47.698;19.050;2023-06-10T08:11:44;22.33;69.49
64937;SHT30;51452;47.698;19.050;2023-06-10T08:14:11;22.39;69.51
64937;SHT30;51452;47.698;19.050;2023-06-10T08:16:36;22.49;69.13
64937;SHT30;51452;47.698;19.050;2023-06-10T08:19:02;22.55;68.91
64937;SHT30;51452;47.698;19.050;2023-06-10T08:21:27;22.66;68.30
64937;SHT30;51452;47.698;19.050;2023-06-10T08:23:53;22.66;68.86
64937;SHT30;51452;47.698;19.050;2023-06-10T08:26:19;22.64;67.83
64937;SHT30;51452;47.698;19.050;2023-06-10T08:28:44;22.55;67.49
64937;SHT30;51452;47.698;19.050;2023-06-10T08:31:10;22.68;67.18
64937;SHT30;51452;47.698;19.050;2023-06-10T08:33:35;22.64;67.47
64937;SHT30;51452;47.698;19.050;2023-06-10T08:36:01;22.68;68.11
64937;SHT30;51452;47.698;19.050;2023-06-10T08:38:26;22.91;68.14
64937;SHT30;51452;47.698;19.050;2023-06-10T08:40:56;22.91;68.18
64937;SHT30;51452;47.698;19.050;2023-06-10T08:43:43;22.93;67.26
64937;SHT30;51452;47.698;19.050;2023-06-10T08:46:09;23.00;68.02
64937;SHT30;51452;47.698;19.050;2023-06-10T08:48:42;23.04;67.19
64937;SHT30;51452;47.698;19.050;2023-06-10T08:51:09;23.08;66.54
64937;SHT30;51452;47.698;19.050;2023-06-10T08:53:36;23.24;67.67
64937;SHT30;51452;47.698;19.050;2023-06-10T08:56:04;23.28;66.62
64937;SHT30;51452;47.698;19.050;2023-06-10T08:58:32;23.31;66.27
64937;SHT30;51452;47.698;19.050;2023-06-10T09:00:59;23.29;67.14
64937;SHT30;51452;47.698;19.050;2023-06-10T09:03:25;23.18;66.52
64937;SHT30;51452;47.698;19.050;2023-06-10T09:05:51;23.08;64.91
64937;SHT30;51452;47.698;19.050;2023-06-10T09:08:16;22.86;66.38
64937;SHT30;51452;47.698;19.050;2023-06-10T09:10:42;23.03;68.57
64937;SHT30;51452;47.698;19.050;2023-06-10T09:13:07;22.88;66.27
64937;SHT30;51452;47.698;19.050;2023-06-10T09:15:33;23.00;67.47
64937;SHT30;51452;47.698;19.050;2023-06-10T09:17:59;22.94;66.67
64937;SHT30;51452;47.698;19.050;2023-06-10T09:20:25;23.03;66.14
64937;SHT30;51452;47.698;19.050;2023-06-10T09:22:51;22.96;66.72
64937;SHT30;51452;47.698;19.050;2023-06-10T09:25:16;23.01;67.24
64937;SHT30;51452;47.698;19.050;2023-06-10T09:27:49;22.96;67.01
64937;SHT30;51452;47.698;19.050;2023-06-10T09:30:48;22.74;67.40
64937;SHT30;51452;47.698;19.050;2023-06-10T09:33:14;22.90;66.81
64937;SHT30;51452;47.698;19.050;2023-06-10T09:35:47;22.80;66.95
64937;SHT30;51452;47.698;19.050;2023-06-10T09:38:15;22.90;66.86
64937;SHT30;51452;47.698;19.050;2023-06-10T09:40:50;22.63;66.12
64937;SHT30;51452;47.698;19.050;2023-06-10T09:43:16;22.74;65.74
64937;SHT30;51452;47.698;19.050;2023-06-10T09:45:41;22.98;66.12
64937;SHT30;51452;47.698;19.050;2023-06-10T09:48:08;23.15;65.65
64937;SHT30;51452;47.698;19.050;2023-06-10T09:50:34;23.27;65.45
64937;SHT30;51452;47.698;19.050;2023-06-10T09:53:00;23.56;66.10
64937;SHT30;51452;47.698;19.050;2023-06-10T09:55:27;23.66;66.15
64937;SHT30;51452;47.698;19.050;2023-06-10T09:57:53;23.63;65.26
64937;SHT30;51452;47.698;19.050;2023-06-10T10:00:19;23.54;65.42
64937;SHT30;51452;47.698;19.050;2023-06-10T10:02:51;23.38;66.11
64937;SHT30;51452;47.698;19.050;2023-06-10T10:05:19;23.42;66.18
64937;SHT30;51452;47.698;19.050;2023-06-10T10:07:45;23.35;67.04
64937;SHT30;51452;47.698;19.050;2023-06-10T10:10:12;23.29;65.76
64937;SHT30;51452;47.698;19.050;2023-06-10T10:12:39;23.15;66.06
64937;SHT30;51452;47.698;19.050;2023-06-10T10:15:09;23.21;65.75
64937;SHT30;51452;47.698;19.050;2023-06-10T10:17:40;23.41;66.88
64937;SHT30;51452;47.698;19.050;2023-06-10T10:20:08;23.65;65.85
64937;SHT30;51452;47.698;19.050;2023-06-10T10:22:41;23.90;67.83
64937;SHT30;51452;47.698;19.050;2023-06-10T10:25:11;24.12;66.51
64937;SHT30;51452;47.698;19.050;2023-06-10T10:27:49;24.10;61.93
64937;SHT30;51452;47.698;19.050;2023-06-10T10:30:17;24.05;62.91
64937;SHT30;51452;47.698;19.050;2023-06-10T10:32:58;24.05;62.54
64937;SHT30;51452;47.698;19.050;2023-06-10T10:35:26;23.83;63.79
64937;SHT30;51452;47.698;19.050;2023-06-10T10:37:53;23.75;63.56
64937;SHT30;51452;47.698;19.050;2023-06-10T10:40:22;23.87;63.77
64937;SHT30;51452;47.698;19.050;2023-06-10T10:42:49;24.05;64.15
64937;SHT30;51452;47.698;19.050;2023-06-10T10:45:15;24.09;62.48
64937;SHT30;51452;47.698;19.050;2023-06-10T10:47:42;24.05;60.56
64937;SHT30;51452;47.698;19.050;2023-06-10T10:50:14;24.27;61.65
64937;SHT30;51452;47.698;19.050;2023-06-10T10:55:17;24.54;64.58
64937;SHT30;51452;47.698;19.050;2023-06-10T10:57:43;24.58;62.54
64937;SHT30;51452;47.698;19.050;2023-06-10T11:00:09;24.74;63.00
64937;SHT30;51452;47.698;19.050;2023-06-10T11:02:36;24.98;63.09
64937;SHT30;51452;47.698;19.050;2023-06-10T11:05:04;25.01;60.76
64937;SHT30;51452;47.698;19.050;2023-06-10T11:07:34;25.04;60.36
64937;SHT30;51452;47.698;19.050;2023-06-10T11:10:11;24.91;60.35
64937;SHT30;51452;47.698;19.050;2023-06-10T11:15:12;24.57;59.87
64937;SHT30;51452;47.698;19.050;2023-06-10T11:17:37;24.48;58.62
64937;SHT30;51452;47.698;19.050;2023-06-10T11:20:03;24.33;60.35
64937;SHT30;51452;47.698;19.050;2023-06-10T11:22:29;24.30;60.51
64937;SHT30;51452;47.698;19.050;2023-06-10T11:24:54;24.06;63.76
64937;SHT30;51452;47.698;19.050;2023-06-10T11:27:24;23.82;65.10
64937;SHT30;51452;47.698;19.050;2023-06-10T11:30:17;23.32;70.62
64937;SHT30;51452;47.698;19.050;2023-06-10T11:32:44;22.78;69.62
64937;SHT30;51452;47.698;19.050;2023-06-10T11:35:10;22.68;72.39
64937;SHT30;51452;47.698;19.050;2023-06-10T11:37:36;22.46;72.11
64937;SHT30;51452;47.698;19.050;2023-06-10T11:40:02;22.52;73.38
64937;SHT30;51452;47.698;19.050;2023-06-10T11:42:27;22.60;74.29
64937;SHT30;51452;47.698;19.050;2023-06-10T11:44:54;22.61;74.18
64937;SHT30;51452;47.698;19.050;2023-06-10T11:47:20;22.64;73.98
64937;SHT30;51452;47.698;19.050;2023-06-10T11:49:55;22.73;73.85
64937;SHT30;51452;47.698;19.050;2023-06-10T11:52:29;22.61;72.62
64937;SHT30;51452;47.698;19.050;2023-06-10T11:54:56;22.70;73.83
64937;SHT30;51452;47.698;19.050;2023-06-10T11:57:21;22.78;75.96
64937;SHT30;51452;47.698;19.050;2023-06-10T11:59:47;22.78;74.82
64937;SHT30;51452;47.698;19.050;2023-06-10T12:02:16;22.73;75.54
64937;SHT30;51452;47.698;19.050;2023-06-10T12:04:42;22.76;74.87
64937;SHT30;51452;47.698;19.050;2023-06-10T12:07:07;22.73;75.07
64937;SHT30;51452;47.698;19.050;2023-06-10T12:09:33;22.78;73.38
64937;SHT30;51452;47.698;19.050;2023-06-10T12:11:59;22.78;75.42
64937;SHT30;51452;47.698;19.050;2023-06-10T12:14:54;22.76;76.83
64937;SHT30;51452;47.698;19.050;2023-06-10T12:17:21;22.87;76.41
64937;SHT30;51452;47.698;19.050;2023-06-10T12:19:47;22.97;76.43
64937;SHT30;51452;47.698;19.050;2023-06-10T12:22:13;22.98;76.44
64937;SHT30;51452;47.698;19.050;2023-06-10T12:25:03;22.98;75.69
64937;SHT30;51452;47.698;19.050;2023-06-10T12:27:30;23.04;75.52
64937;SHT30;51452;47.698;19.050;2023-06-10T12:29:57;23.12;77.94
64937;SHT30;51452;47.698;19.050;2023-06-10T12:32:43;23.22;76.82
64937;SHT30;51452;47.698;19.050;2023-06-10T12:35:10;23.29;77.35
64937;SHT30;51452;47.698;19.050;2023-06-10T12:37:37;23.28;75.12
64937;SHT30;51452;47.698;19.050;2023-06-10T12:40:03;23.38;75.74
64937;SHT30;51452;47.698;19.050;2023-06-10T12:42:30;23.45;76.79
64937;SHT30;51452;47.698;19.050;2023-06-10T12:44:57;23.62;77.18
64937;SHT30;51452;47.698;19.050;2023-06-10T12:47:30;23.67;74.25
64937;SHT30;51452;47.698;19.050;2023-06-10T12:49:57;23.67;70.43
64937;SHT30;51452;47.698;19.050;2023-06-10T12:52:24;23.75;73.68
64937;SHT30;51452;47.698;19.050;2023-06-10T12:54:49;23.86;74.57
64937;SHT30;51452;47.698;19.050;2023-06-10T12:57:15;23.82;73.40
64937;SHT30;51452;47.698;19.050;2023-06-10T12:59:40;23.80;70.57
64937;SHT30;51452;47.698;19.050;2023-06-10T13:02:07;23.79;73.25
64937;SHT30;51452;47.698;19.050;2023-06-10T13:04:32;23.61;65.27
64937;SHT30;51452;47.698;19.050;2023-06-10T13:06:58;23.63;67.82
64937;SHT30;51452;47.698;19.050;2023-06-10T13:09:24;23.73;67.43
64937;SHT30;51452;47.698;19.050;2023-06-10T13:11:49;24.05;68.40
64937;SHT30;51452;47.698;19.050;2023-06-10T13:14:15;24.20;69.16
64937;SHT30;51452;47.698;19.050;2023-06-10T13:16:40;24.47;69.21
64937;SHT30;51452;47.698;19.050;2023-06-10T13:19:06;24.61;71.91
64937;SHT30;51452;47.698;19.050;2023-06-10T13:21:34;24.71;69.41
64937;SHT30;51452;47.698;19.050;2023-06-10T13:24:00;24.85;70.61
64937;SHT30;51452;47.698;19.050;2023-06-10T13:26:26;24.82;68.81
64937;SHT30;51452;47.698;19.050;2023-06-10T13:28:51;24.74;69.05
64937;SHT30;51452;47.698;19.050;2023-06-10T13:31:18;24.64;68.31
64937;SHT30;51452;47.698;19.050;2023-06-10T13:33:45;24.53;68.28
64937;SHT30;51452;47.698;19.050;2023-06-10T13:36:12;24.37;68.40
64937;SHT30;51452;47.698;19.050;2023-06-10T13:38:38;24.27;69.73
64937;SHT30;51452;47.698;19.050;2023-06-10T13:41:03;24.10;69.84
64937;SHT30;51452;47.698;19.050;2023-06-10T13:43:28;24.03;67.92
64937;SHT30;51452;47.698;19.050;2023-06-10T13:45:54;24.09;68.89
64937;SHT30;51452;47.698;19.050;2023-06-10T13:48:19;23.90;70.34
64937;SHT30;51452;47.698;19.050;2023-06-10T13:50:45;23.39;65.85
64937;SHT30;51452;47.698;19.050;2023-06-10T13:53:11;23.07;64.98
64937;SHT30;51452;47.698;19.050;2023-06-10T13:55:37;23.01;66.08
64937;SHT30;51452;47.698;19.050;2023-06-10T13:58:02;22.98;67.56
64937;SHT30;51452;47.698;19.050;2023-06-10T14:00:28;22.88;66.06
64937;SHT30;51452;47.698;19.050;2023-06-10T14:02:53;22.87;67.78
64937;SHT30;51452;47.698;19.050;2023-06-10T14:05:19;22.78;67.05
64937;SHT30;51452;47.698;19.050;2023-06-10T14:07:44;22.68;66.93
64937;SHT30;51452;47.698;19.050;2023-06-10T14:10:10;22.61;68.11
64937;SHT30;51452;47.698;19.050;2023-06-10T14:12:35;22.30;67.82
64937;SHT30;51452;47.698;19.050;2023-06-10T14:15:01;22.37;68.79
64937;SHT30;51452;47.698;19.050;2023-06-10T14:17:26;22.49;70.51
64937;SHT30;51452;47.698;19.050;2023-06-10T14:19:52;22.50;69.46
64937;SHT30;51452;47.698;19.050;2023-06-10T14:22:17;22.49;70.13
64937;SHT30;51452;47.698;19.050;2023-06-10T14:24:42;22.50;69.95
64937;SHT30;51452;47.698;19.050;2023-06-10T14:27:08;22.63;68.75
64937;SHT30;51452;47.698;19.050;2023-06-10T14:29:33;22.76;69.70
64937;SHT30;51452;47.698;19.050;2023-06-10T14:31:59;22.90;68.23
64937;SHT30;51452;47.698;19.050;2023-06-10T14:34:25;22.88;66.34
64937;SHT30;51452;47.698;19.050;2023-06-10T14:36:54;22.90;68.15
64937;SHT30;51452;47.698;19.050;2023-06-10T14:39:20;23.01;68.07
64937;SHT30;51452;47.698;19.050;2023-06-10T14:41:45;22.83;67.32
64937;SHT30;51452;47.698;19.050;2023-06-10T14:44:10;22.91;69.27
64937;SHT30;51452;47.698;19.050;2023-06-10T14:46:36;23.03;69.39
64937;SHT30;51452;47.698;19.050;2023-06-10T14:49:01;22.93;67.69
64937;SHT30;51452;47.698;19.050;2023-06-10T14:51:27;22.84;67.97
64937;SHT30;51452;47.698;19.050;2023-06-10T14:53:53;22.93;68.99
64937;SHT30;51452;47.698;19.050;2023-06-10T14:56:18;22.83;69.10
64937;SHT30;51452;47.698;19.050;2023-06-10T14:58:43;22.84;69.16
64937;SHT30;51452;47.698;19.050;2023-06-10T15:01:09;22.90;69.18
64937;SHT30;51452;47.698;19.050;2023-06-10T15:03:34;22.87;69.13
64937;SHT30;51452;47.698;19.050;2023-06-10T15:06:00;22.86;69.79
64937;SHT30;51452;47.698;19.050;2023-06-10T15:08:26;22.83;69.30
64937;SHT30;51452;47.698;19.050;2023-06-10T15:10:53;22.97;69.95
64937;SHT30;51452;47.698;19.050;2023-06-10T15:13:18;22.88;69.50
64937;SHT30;51452;47.698;19.050;2023-06-10T15:15:43;22.83;69.37
64937;SHT30;51452;47.698;19.050;2023-06-10T15:18:10;22.73;68.38